createdAt,value
2018-11-28T00:00:36.787Z,87.99
2018-11-28T00:03:19.246Z,87.47
2018-11-28T00:06:03.426Z,87.91
2018-11-28T00:08:45.322Z,87.11
2018-11-28T00:11:28.776Z,87.72
2018-11-28T00:14:12.211Z,87.57
2018-11-28T00:16:53.875Z,87.58
2018-11-28T00:19:36.306Z,87.54
2018-11-28T00:22:18.220Z,87.86
2018-11-28T00:25:00.732Z,88.23
2018-11-28T00:27:43.135Z,87.22
2018-11-28T00:30:26.306Z,87.75
2018-11-28T00:33:08.052Z,87.51
2018-11-28T00:35:49.734Z,87.78
2018-11-28T00:38:31.623Z,88.51
2018-11-28T00:41:13.849Z,87.89
2018-11-28T00:43:55.535Z,88.25
2018-11-28T00:46:40.424Z,88.15
2018-11-28T00:49:22.504Z,87.54
2018-11-28T00:52:04.934Z,87.23
2018-11-28T00:54:47.673Z,87.86
2018-11-28T00:57:29.778Z,87.94
2018-11-28T01:00:14.222Z,88.30
2018-11-28T01:02:56.584Z,88.13
2018-11-28T01:05:38.923Z,87.58
2018-11-28T01:08:22.640Z,87.48
2018-11-28T01:11:04.901Z,87.90
2018-11-28T01:13:47.323Z,87.46
2018-11-28T01:16:42.929Z,87.71
2018-11-28T01:19:24.902Z,87.14
2018-11-28T01:22:07.282Z,87.87
2018-11-28T01:24:49.678Z,88.43
2018-11-28T01:27:32.087Z,87.70
2018-11-28T01:30:17.392Z,88.02
2018-11-28T01:32:59.794Z,87.74
2018-11-28T01:35:42.211Z,87.61
2018-11-28T01:38:24.834Z,87.46
2018-11-28T01:41:06.960Z,87.38
2018-11-28T01:43:49.307Z,88.16
2018-11-28T01:46:32.099Z,88.19
2018-11-28T01:49:14.052Z,87.68
2018-11-28T01:51:56.580Z,87.64
2018-11-28T01:54:46.439Z,87.65
2018-11-28T01:57:28.363Z,87.21
2018-11-28T02:00:12.388Z,88.26
2018-11-28T02:02:56.432Z,87.11
2018-11-28T02:05:38.816Z,87.57
2018-11-28T02:08:21.409Z,88.09
2018-11-28T02:11:04.376Z,87.80
2018-11-28T02:13:45.958Z,87.70
2018-11-28T02:16:27.964Z,87.47
2018-11-28T02:19:10.358Z,88.22
2018-11-28T02:21:52.582Z,87.54
2018-11-28T02:24:43.727Z,88.23
2018-11-28T02:27:25.379Z,87.31
2018-11-28T02:30:10.856Z,87.46
2018-11-28T02:32:53.361Z,87.29
2018-11-28T02:35:35.779Z,87.24
2018-11-28T02:38:18.399Z,88.41
2018-11-28T02:41:00.368Z,88.19
2018-11-28T02:43:42.760Z,87.25
2018-11-28T02:46:30.730Z,87.89
2018-11-28T02:49:12.834Z,88.48
2018-11-28T02:51:55.203Z,87.98
2018-11-28T02:54:37.477Z,87.87
2018-11-28T02:57:19.994Z,88.53
2018-11-28T03:00:02.417Z,87.66
2018-11-28T03:02:45.422Z,88.47
2018-11-28T03:05:27.406Z,88.09
2018-11-28T03:08:10.373Z,88.33
2018-11-28T03:10:52.323Z,87.74
2018-11-28T03:13:34.725Z,88.44
2018-11-28T03:16:18.426Z,88.07
2018-11-28T03:19:00.805Z,87.71
2018-11-28T03:21:42.359Z,87.75
2018-11-28T03:24:25.240Z,88.76
2018-11-28T03:27:07.138Z,88.31
2018-11-28T03:29:49.562Z,88.02
2018-11-28T03:32:34.300Z,88.44
2018-11-28T03:35:16.684Z,88.05
2018-11-28T03:37:58.986Z,88.45
2018-11-28T03:40:43.651Z,88.21
2018-11-28T03:43:25.474Z,88.22
2018-11-28T03:46:07.390Z,88.26
2018-11-28T03:48:51.037Z,88.18
2018-11-28T03:51:33.119Z,88.97
2018-11-28T03:54:15.552Z,88.78
2018-11-28T03:56:58.268Z,88.14
2018-11-28T03:59:40.510Z,88.57
2018-11-28T04:02:22.992Z,89.42
2018-11-28T04:05:06.246Z,89.44
2018-11-28T04:07:47.899Z,88.30
2018-11-28T04:10:30.356Z,89.27
2018-11-28T04:13:12.812Z,88.14
2018-11-28T04:15:55.298Z,88.40
2018-11-28T04:18:37.803Z,88.84
2018-11-28T04:21:21.545Z,88.35
2018-11-28T04:24:03.806Z,88.20
2018-11-28T04:26:46.052Z,89.34
2018-11-28T04:29:29.838Z,88.45
2018-11-28T04:32:11.775Z,89.32
2018-11-28T04:34:54.723Z,88.33
2018-11-28T04:37:37.523Z,88.60
2018-11-28T04:40:20.840Z,88.26
2018-11-28T04:43:03.700Z,87.91
2018-11-28T04:45:46.206Z,88.01
2018-11-28T04:48:28.036Z,89.11
2018-11-28T04:51:10.424Z,88.31
2018-11-28T04:53:53.187Z,87.90
2018-11-28T04:56:35.828Z,88.04
2018-11-28T04:59:17.824Z,87.89
2018-11-28T05:02:01.217Z,88.27
2018-11-28T05:04:43.622Z,88.42
2018-11-28T05:07:29.414Z,88.97
2018-11-28T05:10:18.164Z,88.54
2018-11-28T05:13:00.587Z,88.68
2018-11-28T05:15:42.934Z,88.50
2018-11-28T05:18:24.721Z,88.02
2018-11-28T05:21:07.149Z,88.35
2018-11-28T05:23:49.672Z,88.12
2018-11-28T05:26:34.102Z,88.24
2018-11-28T05:29:16.286Z,88.32
2018-11-28T05:31:58.840Z,88.68
2018-11-28T05:34:40.987Z,88.09
2018-11-28T05:37:23.486Z,87.88
2018-11-28T05:40:09.085Z,88.78
2018-11-28T05:42:51.264Z,87.57
2018-11-28T05:45:33.603Z,88.11
2018-11-28T05:48:17.569Z,87.37
2018-11-28T05:51:00.290Z,87.35
2018-11-28T05:53:42.683Z,87.79
2018-11-28T05:56:24.778Z,86.99
2018-11-28T05:59:07.368Z,87.16
2018-11-28T06:01:50.662Z,87.50
2018-11-28T06:04:33.243Z,87.20
2018-11-28T06:07:16.382Z,86.61
2018-11-28T06:09:59.106Z,87.44
2018-11-28T06:12:48.887Z,87.05
2018-11-28T06:15:31.589Z,87.66
2018-11-28T06:18:13.384Z,87.16
2018-11-28T06:20:55.713Z,87.14
2018-11-28T06:23:38.410Z,86.74
2018-11-28T06:26:20.822Z,87.39
2018-11-28T06:29:02.953Z,86.48
2018-11-28T06:31:45.371Z,87.14
2018-11-28T06:38:11.690Z,87.19
2018-11-28T06:40:52.825Z,87.20
2018-11-28T06:43:34.142Z,87.30
2018-11-28T06:46:16.046Z,87.48
2018-11-28T06:49:00.517Z,87.26
2018-11-28T06:51:42.486Z,87.90
2018-11-28T06:54:25.405Z,87.93
2018-11-28T06:57:07.267Z,86.87
2018-11-28T06:59:48.594Z,87.50
2018-11-28T07:02:30.266Z,87.03
2018-11-28T07:05:12.652Z,86.67
2018-11-28T07:07:53.724Z,86.89
2018-11-28T07:10:36.481Z,86.82
2018-11-28T07:13:17.844Z,86.34
2018-11-28T07:15:59.014Z,86.46
2018-11-28T07:18:52.802Z,85.69
2018-11-28T07:21:34.937Z,86.51
2018-11-28T07:24:16.322Z,85.78
2018-11-28T07:26:58.091Z,85.95
2018-11-28T07:29:39.262Z,85.08
2018-11-28T07:32:20.615Z,85.26
2018-11-28T07:35:04.698Z,85.30
2018-11-28T07:37:46.509Z,85.34
2018-11-28T07:40:30.228Z,84.85
2018-11-28T07:43:12.541Z,84.20
2018-11-28T07:45:53.713Z,83.71
2018-11-28T07:48:35.600Z,83.85
2018-11-28T07:51:17.428Z,83.71
2018-11-28T07:53:59.002Z,83.63
2018-11-28T07:56:40.687Z,83.84
2018-11-28T07:59:21.853Z,83.72
2018-11-28T08:02:03.256Z,83.47
2018-11-28T08:04:46.054Z,83.21
2018-11-28T08:07:28.077Z,83.54
2018-11-28T08:10:19.293Z,83.43
2018-11-28T08:13:00.631Z,83.06
2018-11-28T08:15:42.648Z,82.87
2018-11-28T08:18:25.726Z,82.84
2018-11-28T08:21:07.807Z,82.55
2018-11-28T08:23:49.404Z,82.79
2018-11-28T08:26:36.331Z,83.10
2018-11-28T08:29:18.932Z,83.11
2018-11-28T08:32:01.022Z,82.95
2018-11-28T08:34:45.168Z,82.75
2018-11-28T08:37:26.336Z,82.98
2018-11-28T08:40:09.815Z,82.73
2018-11-28T08:42:51.305Z,82.45
2018-11-28T08:45:32.545Z,81.93
2018-11-28T08:48:17.806Z,82.16
2018-11-28T08:50:59.634Z,81.78
2018-11-28T08:53:41.580Z,81.46
2018-11-28T08:56:25.414Z,81.25
2018-11-28T08:59:07.433Z,80.99
2018-11-28T09:01:48.786Z,81.10
2018-11-28T09:04:34.457Z,80.80
2018-11-28T09:07:15.714Z,80.45
2018-11-28T09:09:57.199Z,80.33
2018-11-28T09:12:38.935Z,79.95
2018-11-28T09:15:23.913Z,79.54
2018-11-28T09:18:05.763Z,79.67
2018-11-28T09:20:47.443Z,79.64
2018-11-28T09:23:29.394Z,79.20
2018-11-28T09:26:15.338Z,79.02
2018-11-28T09:28:57.341Z,79.28
2018-11-28T09:31:38.986Z,79.20
2018-11-28T09:34:25.213Z,79.18
2018-11-28T09:37:07.597Z,78.71
2018-11-28T09:39:49.410Z,78.43
2018-11-28T09:42:34.418Z,78.09
2018-11-28T09:45:17.175Z,77.79
2018-11-28T09:47:58.876Z,77.46
2018-11-28T09:50:42.555Z,77.40
2018-11-28T09:53:23.707Z,76.92
2018-11-28T09:56:05.162Z,76.74
2018-11-28T09:58:46.774Z,76.04
2018-11-28T10:01:28.083Z,76.05
2018-11-28T10:04:09.284Z,75.47
2018-11-28T10:06:50.649Z,75.05
2018-11-28T10:09:32.353Z,74.61
2018-11-28T10:12:13.828Z,74.40
2018-11-28T10:14:55.712Z,74.06
2018-11-28T10:17:37.227Z,74.60
2018-11-28T10:20:19.246Z,73.41
2018-11-28T10:23:01.029Z,72.62
2018-11-28T10:25:42.444Z,72.60
2018-11-28T10:28:23.810Z,71.88
2018-11-28T10:31:05.436Z,71.75
2018-11-28T10:33:46.519Z,71.45
2018-11-28T10:36:28.057Z,71.27
2018-11-28T10:39:09.657Z,71.43
2018-11-28T10:41:51.901Z,71.10
2018-11-28T10:44:35.223Z,70.86
2018-11-28T10:47:16.581Z,71.47
2018-11-28T10:49:57.920Z,71.36
2018-11-28T10:52:39.954Z,71.17
2018-11-28T10:55:22.667Z,71.43
2018-11-28T10:58:04.755Z,72.13
2018-11-28T11:00:52.474Z,71.47
2018-11-28T11:03:39.307Z,71.66
2018-11-28T11:06:27.014Z,71.53
2018-11-28T11:09:14.578Z,70.67
2018-11-28T11:12:02.302Z,70.37
2018-11-28T11:14:46.764Z,71.03
2018-11-28T11:17:29.227Z,70.95
2018-11-28T11:20:11.107Z,70.79
2018-11-28T11:22:53.238Z,70.87
2018-11-28T11:25:34.405Z,71.29
2018-11-28T11:28:16.408Z,70.92
2018-11-28T11:30:58.490Z,70.60
2018-11-28T11:33:39.675Z,70.91
2018-11-28T11:36:21.834Z,70.83
2018-11-28T11:39:05.121Z,71.53
2018-11-28T11:41:50.038Z,71.33
2018-11-28T11:44:36.574Z,71.21
2018-11-28T11:47:18.202Z,71.45
2018-11-28T11:50:02.025Z,71.32
2018-11-28T11:52:43.911Z,71.72
2018-11-28T11:55:25.276Z,72.00
2018-11-28T11:58:07.143Z,72.48
2018-11-28T12:00:49.573Z,72.82
2018-11-28T12:03:31.591Z,72.39
2018-11-28T12:06:14.954Z,72.38
2018-11-28T12:08:56.261Z,71.85
2018-11-28T12:11:37.683Z,71.62
2018-11-28T12:14:19.195Z,71.52
2018-11-28T12:17:00.616Z,71.56
2018-11-28T12:19:42.398Z,71.50
2018-11-28T12:22:25.232Z,71.24
2018-11-28T12:25:07.373Z,70.91
2018-11-28T12:27:49.654Z,70.80
2018-11-28T12:30:31.263Z,70.83
2018-11-28T12:33:13.779Z,71.26
2018-11-28T12:35:56.714Z,70.93
2018-11-28T12:38:38.122Z,71.35
2018-11-28T12:41:21.650Z,71.19
2018-11-28T12:44:03.030Z,71.36
2018-11-28T12:46:44.394Z,71.11
2018-11-28T12:49:26.306Z,70.86
2018-11-28T12:52:08.421Z,70.86
2018-11-28T12:54:52.562Z,71.37
2018-11-28T12:57:34.351Z,70.85
2018-11-28T13:00:19.301Z,71.03
2018-11-28T13:03:00.974Z,70.68
2018-11-28T13:05:42.421Z,71.07
2018-11-28T13:08:24.202Z,70.51
2018-11-28T13:11:07.102Z,70.52
2018-11-28T13:13:50.482Z,71.08
2018-11-28T13:16:31.991Z,70.89
2018-11-28T13:19:13.286Z,70.78
2018-11-28T13:21:56.079Z,71.25
2018-11-28T13:24:37.182Z,70.95
2018-11-28T13:27:18.833Z,71.70
2018-11-28T13:30:01.500Z,71.88
2018-11-28T13:32:42.910Z,72.28
2018-11-28T13:35:26.000Z,72.16
2018-11-28T13:38:09.599Z,72.90
2018-11-28T13:40:50.958Z,72.08
2018-11-28T13:43:32.923Z,72.33
2018-11-28T13:46:14.894Z,73.24
2018-11-28T13:48:56.289Z,73.03
2018-11-28T13:51:38.214Z,72.05
2018-11-28T13:54:21.878Z,71.03
2018-11-28T13:57:04.505Z,67.79
2018-11-28T13:59:44.509Z,68.41
2018-11-28T14:02:25.597Z,68.50
2018-11-28T14:05:11.565Z,69.47
2018-11-28T14:07:53.572Z,71.18
2018-11-28T14:10:34.939Z,71.59
2018-11-28T14:13:17.216Z,71.86
2018-11-28T14:15:58.725Z,71.61
2018-11-28T14:18:40.238Z,72.08
2018-11-28T14:21:22.129Z,72.20
2018-11-28T14:24:04.127Z,71.56
2018-11-28T14:26:45.441Z,71.18
2018-11-28T14:29:27.437Z,68.60
2018-11-28T14:32:09.327Z,67.80
2018-11-28T14:34:50.773Z,67.71
2018-11-28T14:37:32.550Z,67.07
2018-11-28T14:40:15.430Z,66.49
2018-11-28T14:42:58.021Z,66.42
2018-11-28T14:45:40.287Z,67.20
2018-11-28T14:48:21.833Z,66.98
2018-11-28T14:51:03.477Z,66.78
2018-11-28T14:53:48.009Z,66.77
2018-11-28T14:56:27.513Z,66.91
2018-11-28T14:59:09.785Z,67.84
2018-11-28T15:01:51.916Z,67.95
2018-11-28T15:04:33.786Z,67.05
2018-11-28T15:07:15.109Z,67.35
2018-11-28T15:09:58.339Z,67.07
2018-11-28T15:12:40.684Z,67.15
2018-11-28T15:15:22.362Z,66.91
2018-11-28T15:18:04.403Z,66.58
2018-11-28T15:20:46.267Z,67.26
2018-11-28T15:23:27.698Z,67.61
2018-11-28T15:26:09.548Z,67.50
2018-11-28T15:28:51.453Z,67.95
2018-11-28T15:31:33.101Z,68.12
2018-11-28T15:34:23.285Z,68.04
2018-11-28T15:37:04.681Z,67.74
2018-11-28T15:39:46.154Z,67.87
2018-11-28T15:42:28.118Z,68.03
2018-11-28T15:45:10.011Z,68.15
2018-11-28T15:47:51.170Z,68.46
2018-11-28T15:50:32.983Z,68.03
2018-11-28T15:53:14.881Z,68.12
2018-11-28T15:55:56.358Z,68.78
2018-11-28T15:58:38.663Z,68.40
2018-11-28T16:01:20.144Z,67.96
2018-11-28T16:04:01.499Z,68.51
2018-11-28T16:06:44.185Z,68.53
2018-11-28T16:09:31.711Z,68.86
2018-11-28T16:12:14.462Z,68.42
2018-11-28T16:14:56.367Z,68.39
2018-11-28T16:17:40.617Z,68.78
2018-11-28T16:20:22.019Z,68.42
2018-11-28T16:23:04.900Z,68.26
2018-11-28T16:25:46.538Z,68.45
2018-11-28T16:28:27.871Z,68.14
2018-11-28T16:31:09.721Z,68.94
2018-11-28T16:33:53.599Z,69.16
2018-11-28T16:36:35.160Z,69.38
2018-11-28T16:39:16.791Z,68.72
2018-11-28T16:41:58.752Z,69.69
2018-11-28T16:44:40.942Z,69.22
2018-11-28T16:47:26.098Z,69.22
2018-11-28T16:50:08.854Z,69.20
2018-11-28T16:52:50.430Z,69.10
2018-11-28T16:55:32.282Z,69.06
2018-11-28T16:58:14.342Z,68.79
2018-11-28T17:00:57.071Z,69.01
2018-11-28T17:03:39.151Z,69.28
2018-11-28T17:06:20.620Z,69.34
2018-11-28T17:09:02.010Z,69.23
2018-11-28T17:11:43.599Z,68.99
2018-11-28T17:14:24.801Z,68.81
2018-11-28T17:17:07.241Z,69.62
2018-11-28T17:19:48.514Z,69.41
2018-11-28T17:22:32.604Z,69.86
2018-11-28T17:25:21.122Z,69.95
2018-11-28T17:28:02.774Z,69.81
2018-11-28T17:30:44.429Z,69.45
2018-11-28T17:33:25.641Z,69.28
2018-11-28T17:36:07.179Z,69.59
2018-11-28T17:38:48.609Z,70.16
2018-11-28T17:41:29.733Z,70.19
2018-11-28T17:44:11.247Z,70.38
2018-11-28T17:46:53.027Z,69.82
2018-11-28T17:49:35.090Z,70.24
2018-11-28T17:52:17.404Z,70.66
2018-11-28T17:55:00.722Z,70.87
2018-11-28T17:57:42.053Z,70.77
2018-11-28T18:00:23.882Z,70.54
2018-11-28T18:03:05.844Z,70.75
2018-11-28T18:05:47.406Z,72.82
2018-11-28T18:08:28.754Z,74.52
2018-11-28T18:11:13.630Z,76.24
2018-11-28T18:13:54.701Z,76.89
2018-11-28T18:16:36.296Z,78.98
2018-11-28T18:19:21.127Z,79.31
2018-11-28T18:22:03.174Z,81.67
2018-11-28T18:24:44.544Z,82.02
2018-11-28T18:27:26.323Z,80.83
2018-11-28T18:30:10.338Z,82.20
2018-11-28T18:32:52.681Z,81.41
2018-11-28T18:35:35.618Z,84.21
2018-11-28T18:38:17.841Z,84.25
2018-11-28T18:40:59.025Z,84.41
2018-11-28T18:43:40.692Z,83.75
2018-11-28T18:46:21.802Z,84.57
2018-11-28T18:49:03.279Z,84.84
2018-11-28T18:51:44.851Z,84.78
2018-11-28T18:54:25.995Z,83.94
2018-11-28T18:57:07.461Z,84.66
2018-11-28T18:59:50.631Z,83.73
2018-11-28T19:02:32.107Z,84.51
2018-11-28T19:05:13.704Z,85.79
2018-11-28T19:07:57.323Z,86.08
2018-11-28T19:10:39.418Z,85.73
2018-11-28T19:13:21.396Z,86.56
2018-11-28T19:16:03.603Z,86.01
2018-11-28T19:18:44.671Z,86.09
2018-11-28T19:21:26.136Z,86.39
2018-11-28T19:24:07.831Z,86.98
2018-11-28T19:26:49.002Z,86.77
2018-11-28T19:29:30.288Z,87.51
2018-11-28T19:32:12.348Z,87.54
2018-11-28T19:34:54.355Z,87.31
2018-11-28T19:37:35.666Z,87.43
2018-11-28T19:40:28.905Z,88.03
2018-11-28T19:43:10.607Z,88.00
2018-11-28T19:45:53.666Z,87.52
2018-11-28T19:48:35.443Z,86.90
2018-11-28T19:51:16.885Z,87.78
2018-11-28T19:53:58.806Z,87.88
2018-11-28T19:56:40.726Z,87.79
2018-11-28T19:59:22.160Z,88.75
2018-11-28T20:02:05.445Z,89.14
2018-11-28T20:04:47.785Z,89.08
2018-11-28T20:07:29.380Z,88.64
2018-11-28T20:10:14.422Z,89.21
2018-11-28T20:12:56.286Z,89.59
2018-11-28T20:15:39.850Z,89.29
2018-11-28T20:18:29.239Z,89.35
2018-11-28T20:21:18.763Z,89.93
2018-11-28T20:24:01.145Z,90.22
2018-11-28T20:26:43.686Z,90.48
2018-11-28T20:29:26.085Z,90.70
2018-11-28T20:32:08.138Z,91.39
2018-11-28T20:34:49.675Z,91.97
2018-11-28T20:37:32.589Z,91.48
2018-11-28T20:40:15.638Z,92.16
2018-11-28T20:42:57.403Z,92.62
2018-11-28T20:45:39.532Z,92.46
2018-11-28T20:48:21.128Z,92.51
2018-11-28T20:51:03.646Z,92.19
2018-11-28T20:53:45.956Z,92.90
2018-11-28T20:56:28.647Z,92.85
2018-11-28T20:59:10.796Z,92.75
2018-11-28T21:01:52.841Z,92.62
2018-11-28T21:04:34.694Z,92.69
2018-11-28T21:07:16.732Z,92.39
2018-11-28T21:10:03.227Z,92.44
2018-11-28T21:12:45.171Z,92.13
2018-11-28T21:15:27.307Z,92.09
2018-11-28T21:18:10.530Z,91.68
2018-11-28T21:20:51.918Z,91.97
2018-11-28T21:23:33.267Z,91.57
2018-11-28T21:26:15.247Z,91.08
2018-11-28T21:28:57.116Z,91.25
2018-11-28T21:31:39.518Z,91.38
2018-11-28T21:34:23.286Z,92.09
2018-11-28T21:37:05.377Z,91.47
2018-11-28T21:39:55.819Z,90.57
2018-11-28T21:42:37.235Z,91.20
2018-11-28T21:45:20.278Z,91.70
2018-11-28T21:48:03.061Z,91.11
2018-11-28T21:50:44.210Z,91.18
2018-11-28T21:53:25.978Z,90.13
2018-11-28T21:56:07.539Z,90.14
2018-11-28T21:58:49.573Z,89.60
2018-11-28T22:01:30.998Z,89.49
2018-11-28T22:04:12.846Z,89.45
2018-11-28T22:06:54.882Z,88.89
2018-11-28T22:09:36.285Z,89.07
2018-11-28T22:12:18.346Z,88.84
2018-11-28T22:15:01.921Z,88.53
2018-11-28T22:17:48.256Z,87.82
2018-11-28T22:20:31.758Z,87.41
2018-11-28T22:23:21.128Z,87.67
2018-11-28T22:26:09.449Z,87.46
2018-11-28T22:29:00.466Z,86.18
2018-11-28T22:31:43.694Z,86.51
2018-11-28T22:34:27.906Z,86.37
2018-11-28T22:37:10.986Z,86.03
2018-11-28T22:39:53.863Z,86.37
2018-11-28T22:42:41.824Z,85.94
2018-11-28T22:45:28.292Z,86.22
2018-11-28T22:48:17.425Z,87.05
2018-11-28T22:51:06.321Z,87.06
2018-11-28T22:53:48.078Z,87.49
2018-11-28T22:56:29.458Z,87.45
2018-11-28T22:59:10.793Z,87.77
2018-11-28T23:02:57.161Z,86.87
2018-11-28T23:05:41.746Z,87.19
2018-11-28T23:08:23.106Z,87.20
2018-11-28T23:11:05.330Z,86.83
2018-11-28T23:13:46.930Z,87.28
2018-11-28T23:16:28.381Z,87.08
2018-11-28T23:19:10.222Z,86.81
2018-11-28T23:21:52.110Z,86.71
2018-11-28T23:24:33.546Z,86.78
2018-11-28T23:27:15.608Z,87.44
2018-11-28T23:29:57.402Z,86.92
2018-11-28T23:32:38.758Z,87.14
2018-11-28T23:35:20.550Z,87.22
2018-11-28T23:38:01.631Z,86.57
2018-11-28T23:40:43.205Z,87.39
2018-11-28T23:43:25.158Z,87.05
2018-11-28T23:46:07.158Z,87.07
2018-11-28T23:48:48.341Z,86.66
2018-11-28T23:51:30.118Z,86.05
2018-11-28T23:54:11.234Z,85.93
2018-11-28T23:56:52.586Z,85.87
2018-11-28T23:59:36.935Z,85.49
